Terminal Aerodrome Forecast
Issued by NWS

Home | Current Version | Previous Version | Text Only | Print | Product List | Glossary On
Versions: 1 2 3 4 5 6 7 8 9 10 11 12 13 14 15 16 17
479
FTUS43 KFGF 261410 AAB
TAFDVL
TAF AMD
KDVL 261410Z 2614/2712 30006KT P6SM BKN010
      TEMPO 2614/2616 BKN024
     FM261700 26011KT P6SM BKN035
     FM262300 27010KT P6SM SCT100
     FM270300 VRB06KT P6SM BKN015=

USA.gov is the U.S. government's official web portal to all federal, state and local government web resources and services.